sensor_id;sensor_type;location;lat;lon;timestamp;temperature;humidity
58582;DHT22;44361;51.476;5.700;2022-10-31T00:02:08;12.80;99.90
58582;DHT22;44361;51.476;5.700;2022-10-31T00:04:33;12.80;99.90
58582;DHT22;44361;51.476;5.700;2022-10-31T00:06:59;12.70;99.90
58582;DHT22;44361;51.476;5.700;2022-10-31T00:09:24;12.70;99.90
58582;DHT22;44361;51.476;5.700;2022-10-31T00:11:50;12.70;99.90
58582;DHT22;44361;51.476;5.700;2022-10-31T00:14:15;12.70;99.90
58582;DHT22;44361;51.476;5.700;2022-10-31T00:16:41;12.70;99.90
58582;DHT22;44361;51.476;5.700;2022-10-31T00:19:07;12.60;99.90
58582;DHT22;44361;51.476;5.700;2022-10-31T00:21:34;12.60;99.90
58582;DHT22;44361;51.476;5.700;2022-10-31T00:24:00;12.50;99.90
58582;DHT22;44361;51.476;5.700;2022-10-31T00:26:30;12.50;99.90
58582;DHT22;44361;51.476;5.700;2022-10-31T00:28:57;12.50;99.90
58582;DHT22;44361;51.476;5.700;2022-10-31T00:31:22;12.50;99.90
58582;DHT22;44361;51.476;5.700;2022-10-31T00:33:48;12.50;99.90
58582;DHT22;44361;51.476;5.700;2022-10-31T00:36:15;12.50;99.90
58582;DHT22;44361;51.476;5.700;2022-10-31T00:38:42;12.50;99.90
58582;DHT22;44361;51.476;5.700;2022-10-31T00:41:09;12.50;99.90
58582;DHT22;44361;51.476;5.700;2022-10-31T00:43:35;12.40;99.90
58582;DHT22;44361;51.476;5.700;2022-10-31T00:46:01;12.30;99.90
58582;DHT22;44361;51.476;5.700;2022-10-31T00:48:26;12.30;99.90
58582;DHT22;44361;51.476;5.700;2022-10-31T00:50:52;12.20;99.90
58582;DHT22;44361;51.476;5.700;2022-10-31T00:53:17;12.20;99.90
58582;DHT22;44361;51.476;5.700;2022-10-31T00:55:43;12.20;99.90
58582;DHT22;44361;51.476;5.700;2022-10-31T00:58:08;12.20;99.90
58582;DHT22;44361;51.476;5.700;2022-10-31T01:00:34;12.20;99.90
58582;DHT22;44361;51.476;5.700;2022-10-31T01:03:00;12.20;99.90
58582;DHT22;44361;51.476;5.700;2022-10-31T01:05:25;12.20;99.90
58582;DHT22;44361;51.476;5.700;2022-10-31T01:07:51;12.20;99.90
58582;DHT22;44361;51.476;5.700;2022-10-31T01:10:17;12.20;99.90
58582;DHT22;44361;51.476;5.700;2022-10-31T01:12:46;12.20;99.90
58582;DHT22;44361;51.476;5.700;2022-10-31T01:15:14;12.20;99.90
58582;DHT22;44361;51.476;5.700;2022-10-31T01:17:40;12.20;99.90
58582;DHT22;44361;51.476;5.700;2022-10-31T01:20:07;12.20;99.90
58582;DHT22;44361;51.476;5.700;2022-10-31T01:22:33;12.20;99.90
58582;DHT22;44361;51.476;5.700;2022-10-31T01:24:59;12.20;99.90
58582;DHT22;44361;51.476;5.700;2022-10-31T01:27:25;12.10;99.90
58582;DHT22;44361;51.476;5.700;2022-10-31T01:29:51;12.20;99.90
58582;DHT22;44361;51.476;5.700;2022-10-31T01:32:16;12.10;99.90
58582;DHT22;44361;51.476;5.700;2022-10-31T01:34:42;12.10;99.90
58582;DHT22;44361;51.476;5.700;2022-10-31T01:37:07;12.00;99.90
58582;DHT22;44361;51.476;5.700;2022-10-31T01:39:33;12.00;99.90
58582;DHT22;44361;51.476;5.700;2022-10-31T01:41:58;12.00;99.90
58582;DHT22;44361;51.476;5.700;2022-10-31T01:49:27;11.80;99.90
58582;DHT22;44361;51.476;5.700;2022-10-31T01:52:20;11.80;99.90
58582;DHT22;44361;51.476;5.700;2022-10-31T01:54:47;11.70;99.90
58582;DHT22;44361;51.476;5.700;2022-10-31T01:57:14;11.60;99.90
58582;DHT22;44361;51.476;5.700;2022-10-31T01:59:45;11.60;99.90
58582;DHT22;44361;51.476;5.700;2022-10-31T02:02:12;11.60;99.90
58582;DHT22;44361;51.476;5.700;2022-10-31T02:04:38;11.60;99.90
58582;DHT22;44361;51.476;5.700;2022-10-31T02:07:09;11.60;99.90
58582;DHT22;44361;51.476;5.700;2022-10-31T02:09:36;11.60;99.90
58582;DHT22;44361;51.476;5.700;2022-10-31T02:12:03;11.60;99.90
58582;DHT22;44361;51.476;5.700;2022-10-31T02:14:30;11.60;99.90
58582;DHT22;44361;51.476;5.700;2022-10-31T02:16:57;11.60;99.90
58582;DHT22;44361;51.476;5.700;2022-10-31T02:19:50;11.60;99.90
58582;DHT22;44361;51.476;5.700;2022-10-31T02:22:27;11.60;99.90
58582;DHT22;44361;51.476;5.700;2022-10-31T02:25:26;11.60;99.90
58582;DHT22;44361;51.476;5.700;2022-10-31T02:31:00;11.50;99.90
58582;DHT22;44361;51.476;5.700;2022-10-31T02:33:57;11.50;99.90
58582;DHT22;44361;51.476;5.700;2022-10-31T02:36:47;11.50;99.90
58582;DHT22;44361;51.476;5.700;2022-10-31T02:39:26;11.60;99.90
58582;DHT22;44361;51.476;5.700;2022-10-31T02:44:35;11.50;99.90
58582;DHT22;44361;51.476;5.700;2022-10-31T02:47:09;11.40;99.90
58582;DHT22;44361;51.476;5.700;2022-10-31T02:49:51;11.30;99.90
58582;DHT22;44361;51.476;5.700;2022-10-31T02:52:23;11.30;99.90
58582;DHT22;44361;51.476;5.700;2022-10-31T02:54:50;11.30;99.90
58582;DHT22;44361;51.476;5.700;2022-10-31T02:57:20;11.30;99.90
58582;DHT22;44361;51.476;5.700;2022-10-31T02:59:51;11.30;99.90
58582;DHT22;44361;51.476;5.700;2022-10-31T03:09:01;11.20;99.90
58582;DHT22;44361;51.476;5.700;2022-10-31T03:11:08;11.20;99.90
58582;DHT22;44361;51.476;5.700;2022-10-31T03:16:43;11.20;99.90
58582;DHT22;44361;51.476;5.700;2022-10-31T03:19:19;11.20;99.90
58582;DHT22;44361;51.476;5.700;2022-10-31T03:21:58;11.20;99.90
58582;DHT22;44361;51.476;5.700;2022-10-31T03:24:31;11.30;99.90
58582;DHT22;44361;51.476;5.700;2022-10-31T03:26:59;11.30;99.90
58582;DHT22;44361;51.476;5.700;2022-10-31T03:29:28;11.30;99.90
58582;DHT22;44361;51.476;5.700;2022-10-31T03:32:01;11.40;99.90
58582;DHT22;44361;51.476;5.700;2022-10-31T03:34:30;11.40;99.90
58582;DHT22;44361;51.476;5.700;2022-10-31T03:36:58;11.40;99.90
58582;DHT22;44361;51.476;5.700;2022-10-31T03:39:25;11.30;99.90
58582;DHT22;44361;51.476;5.700;2022-10-31T03:42:07;11.30;99.90
58582;DHT22;44361;51.476;5.700;2022-10-31T03:44:34;11.20;99.90
58582;DHT22;44361;51.476;5.700;2022-10-31T03:47:02;11.10;99.90
58582;DHT22;44361;51.476;5.700;2022-10-31T03:49:29;11.10;99.90
58582;DHT22;44361;51.476;5.700;2022-10-31T03:57:41;10.90;99.90
58582;DHT22;44361;51.476;5.700;2022-10-31T04:00:11;10.90;99.90
58582;DHT22;44361;51.476;5.700;2022-10-31T04:02:45;10.80;99.90
58582;DHT22;44361;51.476;5.700;2022-10-31T04:05:13;10.80;99.90
58582;DHT22;44361;51.476;5.700;2022-10-31T04:07:43;10.90;99.90
58582;DHT22;44361;51.476;5.700;2022-10-31T04:10:12;10.90;99.90
58582;DHT22;44361;51.476;5.700;2022-10-31T04:12:39;10.90;99.90
58582;DHT22;44361;51.476;5.700;2022-10-31T04:15:06;10.90;99.90
58582;DHT22;44361;51.476;5.700;2022-10-31T04:17:36;10.90;99.90
58582;DHT22;44361;51.476;5.700;2022-10-31T04:20:04;10.90;99.90
58582;DHT22;44361;51.476;5.700;2022-10-31T04:22:30;11.00;99.90
58582;DHT22;44361;51.476;5.700;2022-10-31T04:24:56;11.00;99.90
58582;DHT22;44361;51.476;5.700;2022-10-31T04:27:21;11.00;99.90
58582;DHT22;44361;51.476;5.700;2022-10-31T04:29:47;11.10;99.90
58582;DHT22;44361;51.476;5.700;2022-10-31T04:32:12;11.10;99.90
58582;DHT22;44361;51.476;5.700;2022-10-31T04:34:38;11.10;99.90
58582;DHT22;44361;51.476;5.700;2022-10-31T04:37:03;11.20;99.90
58582;DHT22;44361;51.476;5.700;2022-10-31T04:39:29;11.20;99.90
58582;DHT22;44361;51.476;5.700;2022-10-31T04:41:54;11.20;99.90
58582;DHT22;44361;51.476;5.700;2022-10-31T04:44:20;11.30;99.90
58582;DHT22;44361;51.476;5.700;2022-10-31T04:46:46;11.30;99.90
58582;DHT22;44361;51.476;5.700;2022-10-31T04:49:11;11.30;99.90
58582;DHT22;44361;51.476;5.700;2022-10-31T04:51:37;11.30;99.90
58582;DHT22;44361;51.476;5.700;2022-10-31T04:54:02;11.30;99.90
58582;DHT22;44361;51.476;5.700;2022-10-31T04:56:28;11.20;99.90
58582;DHT22;44361;51.476;5.700;2022-10-31T04:58:54;11.30;99.90
58582;DHT22;44361;51.476;5.700;2022-10-31T05:01:19;11.30;99.90
58582;DHT22;44361;51.476;5.700;2022-10-31T05:03:45;11.20;99.90
58582;DHT22;44361;51.476;5.700;2022-10-31T05:06:10;11.20;99.90
58582;DHT22;44361;51.476;5.700;2022-10-31T05:08:36;11.20;99.90
58582;DHT22;44361;51.476;5.700;2022-10-31T05:11:02;11.20;99.90
58582;DHT22;44361;51.476;5.700;2022-10-31T05:13:28;11.10;99.90
58582;DHT22;44361;51.476;5.700;2022-10-31T05:15:54;11.10;99.90
58582;DHT22;44361;51.476;5.700;2022-10-31T05:18:20;11.00;99.90
58582;DHT22;44361;51.476;5.700;2022-10-31T05:20:45;10.90;99.90
58582;DHT22;44361;51.476;5.700;2022-10-31T05:23:11;10.80;99.90
58582;DHT22;44361;51.476;5.700;2022-10-31T05:25:37;10.80;99.90
58582;DHT22;44361;51.476;5.700;2022-10-31T05:28:02;10.80;99.90
58582;DHT22;44361;51.476;5.700;2022-10-31T05:30:30;10.80;99.90
58582;DHT22;44361;51.476;5.700;2022-10-31T05:32:56;10.70;99.90
58582;DHT22;44361;51.476;5.700;2022-10-31T05:35:27;10.70;99.90
58582;DHT22;44361;51.476;5.700;2022-10-31T05:37:53;10.70;99.90
58582;DHT22;44361;51.476;5.700;2022-10-31T05:40:19;10.60;99.90
58582;DHT22;44361;51.476;5.700;2022-10-31T05:42:46;10.60;99.90
58582;DHT22;44361;51.476;5.700;2022-10-31T05:45:14;10.60;99.90
58582;DHT22;44361;51.476;5.700;2022-10-31T05:47:40;10.50;99.90
58582;DHT22;44361;51.476;5.700;2022-10-31T05:50:07;10.50;99.90
58582;DHT22;44361;51.476;5.700;2022-10-31T05:52:32;10.40;99.90
58582;DHT22;44361;51.476;5.700;2022-10-31T05:54:58;10.40;99.90
58582;DHT22;44361;51.476;5.700;2022-10-31T05:57:24;10.40;99.90
58582;DHT22;44361;51.476;5.700;2022-10-31T05:59:49;10.30;99.90
58582;DHT22;44361;51.476;5.700;2022-10-31T06:02:18;10.20;99.90
58582;DHT22;44361;51.476;5.700;2022-10-31T06:04:44;10.20;99.90
58582;DHT22;44361;51.476;5.700;2022-10-31T06:07:09;10.20;99.90
58582;DHT22;44361;51.476;5.700;2022-10-31T06:09:35;10.10;99.90
58582;DHT22;44361;51.476;5.700;2022-10-31T06:12:00;10.20;99.90
58582;DHT22;44361;51.476;5.700;2022-10-31T06:14:26;10.10;99.90
58582;DHT22;44361;51.476;5.700;2022-10-31T06:16:51;10.10;99.90
58582;DHT22;44361;51.476;5.700;2022-10-31T06:19:17;10.10;99.90
58582;DHT22;44361;51.476;5.700;2022-10-31T06:21:43;10.10;99.90
58582;DHT22;44361;51.476;5.700;2022-10-31T06:24:08;10.10;99.90
58582;DHT22;44361;51.476;5.700;2022-10-31T06:26:34;10.10;99.90
58582;DHT22;44361;51.476;5.700;2022-10-31T06:28:59;10.10;99.90
58582;DHT22;44361;51.476;5.700;2022-10-31T06:31:25;10.10;99.90
58582;DHT22;44361;51.476;5.700;2022-10-31T06:33:50;10.00;99.90
58582;DHT22;44361;51.476;5.700;2022-10-31T06:36:16;10.00;99.90
58582;DHT22;44361;51.476;5.700;2022-10-31T06:38:41;10.00;99.90
58582;DHT22;44361;51.476;5.700;2022-10-31T06:41:07;10.00;99.90
58582;DHT22;44361;51.476;5.700;2022-10-31T06:43:33;10.00;99.90
58582;DHT22;44361;51.476;5.700;2022-10-31T06:46:02;10.00;99.90
58582;DHT22;44361;51.476;5.700;2022-10-31T06:48:28;10.00;99.90
58582;DHT22;44361;51.476;5.700;2022-10-31T06:51:00;10.00;99.90
58582;DHT22;44361;51.476;5.700;2022-10-31T06:53:26;10.10;99.90
58582;DHT22;44361;51.476;5.700;2022-10-31T06:55:55;10.10;99.90
58582;DHT22;44361;51.476;5.700;2022-10-31T06:58:21;10.10;99.90
58582;DHT22;44361;51.476;5.700;2022-10-31T07:00:46;10.10;99.90
58582;DHT22;44361;51.476;5.700;2022-10-31T07:03:13;10.10;99.90
58582;DHT22;44361;51.476;5.700;2022-10-31T07:05:41;10.20;99.90
58582;DHT22;44361;51.476;5.700;2022-10-31T07:08:08;10.20;99.90
58582;DHT22;44361;51.476;5.700;2022-10-31T07:10:36;10.30;99.90
58582;DHT22;44361;51.476;5.700;2022-10-31T07:13:04;10.30;99.90
58582;DHT22;44361;51.476;5.700;2022-10-31T07:15:33;10.30;99.90
58582;DHT22;44361;51.476;5.700;2022-10-31T07:18:04;10.30;99.90
58582;DHT22;44361;51.476;5.700;2022-10-31T07:20:30;10.40;99.90
58582;DHT22;44361;51.476;5.700;2022-10-31T07:22:56;10.40;99.90
58582;DHT22;44361;51.476;5.700;2022-10-31T07:25:22;10.40;99.90
58582;DHT22;44361;51.476;5.700;2022-10-31T07:27:48;10.40;99.90
58582;DHT22;44361;51.476;5.700;2022-10-31T07:30:14;10.40;99.90
58582;DHT22;44361;51.476;5.700;2022-10-31T07:32:46;10.50;99.90
58582;DHT22;44361;51.476;5.700;2022-10-31T07:35:20;10.50;99.90
58582;DHT22;44361;51.476;5.700;2022-10-31T07:37:46;10.50;99.90
58582;DHT22;44361;51.476;5.700;2022-10-31T07:40:12;10.50;99.90
58582;DHT22;44361;51.476;5.700;2022-10-31T07:42:39;10.50;99.90
58582;DHT22;44361;51.476;5.700;2022-10-31T07:45:06;10.50;99.90
58582;DHT22;44361;51.476;5.700;2022-10-31T07:47:58;10.70;99.90
58582;DHT22;44361;51.476;5.700;2022-10-31T07:50:27;10.80;99.90
58582;DHT22;44361;51.476;5.700;2022-10-31T07:53:03;10.90;99.90
58582;DHT22;44361;51.476;5.700;2022-10-31T07:55:30;11.00;99.90
58582;DHT22;44361;51.476;5.700;2022-10-31T07:58:03;11.10;99.90
58582;DHT22;44361;51.476;5.700;2022-10-31T08:00:30;11.20;99.90
58582;DHT22;44361;51.476;5.700;2022-10-31T08:03:01;11.20;99.90
58582;DHT22;44361;51.476;5.700;2022-10-31T08:05:27;11.40;99.90
58582;DHT22;44361;51.476;5.700;2022-10-31T08:07:53;11.50;99.90
58582;DHT22;44361;51.476;5.700;2022-10-31T08:10:19;11.60;99.90
58582;DHT22;44361;51.476;5.700;2022-10-31T08:12:44;11.70;99.90
58582;DHT22;44361;51.476;5.700;2022-10-31T08:15:10;11.70;99.90
58582;DHT22;44361;51.476;5.700;2022-10-31T08:17:36;11.80;99.90
58582;DHT22;44361;51.476;5.700;2022-10-31T08:20:03;11.80;99.90
58582;DHT22;44361;51.476;5.700;2022-10-31T08:22:29;11.80;99.90
58582;DHT22;44361;51.476;5.700;2022-10-31T08:24:54;12.00;99.90
58582;DHT22;44361;51.476;5.700;2022-10-31T08:27:20;12.10;99.90
58582;DHT22;44361;51.476;5.700;2022-10-31T08:29:45;12.10;99.90
58582;DHT22;44361;51.476;5.700;2022-10-31T08:32:11;12.20;99.90
58582;DHT22;44361;51.476;5.700;2022-10-31T08:34:36;12.30;99.90
58582;DHT22;44361;51.476;5.700;2022-10-31T08:37:02;12.30;99.90
58582;DHT22;44361;51.476;5.700;2022-10-31T08:39:27;12.40;99.90
58582;DHT22;44361;51.476;5.700;2022-10-31T08:41:53;12.40;99.90
58582;DHT22;44361;51.476;5.700;2022-10-31T08:44:18;12.50;99.90
58582;DHT22;44361;51.476;5.700;2022-10-31T08:46:44;12.50;99.90
58582;DHT22;44361;51.476;5.700;2022-10-31T08:49:09;12.60;99.90
58582;DHT22;44361;51.476;5.700;2022-10-31T08:51:35;12.70;99.90
58582;DHT22;44361;51.476;5.700;2022-10-31T08:54:00;12.90;99.90
58582;DHT22;44361;51.476;5.700;2022-10-31T08:56:26;13.00;99.90
58582;DHT22;44361;51.476;5.700;2022-10-31T08:58:53;13.10;99.90
58582;DHT22;44361;51.476;5.700;2022-10-31T09:01:19;13.00;99.90
58582;DHT22;44361;51.476;5.700;2022-10-31T09:03:44;13.00;99.90
58582;DHT22;44361;51.476;5.700;2022-10-31T09:06:10;13.00;99.90
58582;DHT22;44361;51.476;5.700;2022-10-31T09:08:36;13.20;99.90
58582;DHT22;44361;51.476;5.700;2022-10-31T09:11:02;13.20;99.90
58582;DHT22;44361;51.476;5.700;2022-10-31T09:13:28;13.30;99.90
58582;DHT22;44361;51.476;5.700;2022-10-31T09:15:55;13.40;99.90
58582;DHT22;44361;51.476;5.700;2022-10-31T09:18:22;13.50;99.90
58582;DHT22;44361;51.476;5.700;2022-10-31T09:20:49;13.70;99.90
58582;DHT22;44361;51.476;5.700;2022-10-31T09:23:17;13.90;99.90
58582;DHT22;44361;51.476;5.700;2022-10-31T09:25:43;14.10;99.90
58582;DHT22;44361;51.476;5.700;2022-10-31T09:28:11;14.20;99.90
58582;DHT22;44361;51.476;5.700;2022-10-31T09:30:37;14.30;99.90
58582;DHT22;44361;51.476;5.700;2022-10-31T09:33:05;14.40;99.90
58582;DHT22;44361;51.476;5.700;2022-10-31T09:35:31;14.30;99.90
58582;DHT22;44361;51.476;5.700;2022-10-31T09:37:58;14.40;99.90
58582;DHT22;44361;51.476;5.700;2022-10-31T09:43:57;14.70;99.90
58582;DHT22;44361;51.476;5.700;2022-10-31T09:52:38;15.10;99.90
58582;DHT22;44361;51.476;5.700;2022-10-31T09:55:12;15.20;99.90
58582;DHT22;44361;51.476;5.700;2022-10-31T09:57:40;15.20;99.90
58582;DHT22;44361;51.476;5.700;2022-10-31T10:00:14;15.30;99.90
58582;DHT22;44361;51.476;5.700;2022-10-31T10:02:49;15.40;99.90
58582;DHT22;44361;51.476;5.700;2022-10-31T10:08:07;15.50;99.90
58582;DHT22;44361;51.476;5.700;2022-10-31T10:21:39;16.30;99.90
58582;DHT22;44361;51.476;5.700;2022-10-31T10:24:38;16.40;99.90
58582;DHT22;44361;51.476;5.700;2022-10-31T10:27:23;16.40;99.90
58582;DHT22;44361;51.476;5.700;2022-10-31T10:33:02;16.20;99.90
58582;DHT22;44361;51.476;5.700;2022-10-31T10:40:41;16.20;99.90
58582;DHT22;44361;51.476;5.700;2022-10-31T10:43:38;16.20;99.90
58582;DHT22;44361;51.476;5.700;2022-10-31T10:46:26;16.30;99.90
58582;DHT22;44361;51.476;5.700;2022-10-31T10:49:33;16.30;99.90
58582;DHT22;44361;51.476;5.700;2022-10-31T10:54:43;16.50;99.90
58582;DHT22;44361;51.476;5.700;2022-10-31T11:00:17;16.60;99.90
58582;DHT22;44361;51.476;5.700;2022-10-31T11:02:43;16.70;99.90
58582;DHT22;44361;51.476;5.700;2022-10-31T11:05:18;16.70;99.90
58582;DHT22;44361;51.476;5.700;2022-10-31T11:07:45;16.70;99.90
58582;DHT22;44361;51.476;5.700;2022-10-31T11:10:15;16.80;99.90
58582;DHT22;44361;51.476;5.700;2022-10-31T11:12:56;16.90;99.90
58582;DHT22;44361;51.476;5.700;2022-10-31T11:15:24;17.00;99.90
58582;DHT22;44361;51.476;5.700;2022-10-31T11:17:52;17.10;99.90
58582;DHT22;44361;51.476;5.700;2022-10-31T11:22:46;17.00;99.90
58582;DHT22;44361;51.476;5.700;2022-10-31T11:25:23;17.10;99.90
58582;DHT22;44361;51.476;5.700;2022-10-31T11:28:07;17.10;99.90
58582;DHT22;44361;51.476;5.700;2022-10-31T11:30:46;17.10;99.90
58582;DHT22;44361;51.476;5.700;2022-10-31T11:33:35;17.30;99.90
58582;DHT22;44361;51.476;5.700;2022-10-31T11:36:13;17.60;99.90
58582;DHT22;44361;51.476;5.700;2022-10-31T11:38:41;18.00;99.90
58582;DHT22;44361;51.476;5.700;2022-10-31T11:43:39;18.20;99.90
58582;DHT22;44361;51.476;5.700;2022-10-31T11:46:10;18.20;99.90
58582;DHT22;44361;51.476;5.700;2022-10-31T11:48:37;18.00;99.90
58582;DHT22;44361;51.476;5.700;2022-10-31T11:51:04;18.10;99.90
58582;DHT22;44361;51.476;5.700;2022-10-31T11:53:33;18.00;99.90
58582;DHT22;44361;51.476;5.700;2022-10-31T11:56:19;17.90;99.90
58582;DHT22;44361;51.476;5.700;2022-10-31T11:59:05;17.80;99.90
58582;DHT22;44361;51.476;5.700;2022-10-31T12:01:32;17.70;99.90
58582;DHT22;44361;51.476;5.700;2022-10-31T12:04:06;17.50;99.90
58582;DHT22;44361;51.476;5.700;2022-10-31T12:06:37;17.40;99.90
58582;DHT22;44361;51.476;5.700;2022-10-31T12:09:32;17.40;99.90
58582;DHT22;44361;51.476;5.700;2022-10-31T12:23:25;17.40;99.90
58582;DHT22;44361;51.476;5.700;2022-10-31T12:26:04;17.40;99.90
58582;DHT22;44361;51.476;5.700;2022-10-31T12:28:54;17.50;99.90
58582;DHT22;44361;51.476;5.700;2022-10-31T12:31:47;17.70;99.90
58582;DHT22;44361;51.476;5.700;2022-10-31T12:34:49;17.90;99.90
58582;DHT22;44361;51.476;5.700;2022-10-31T12:37:53;17.90;99.90
58582;DHT22;44361;51.476;5.700;2022-10-31T12:40:51;17.90;99.90
58582;DHT22;44361;51.476;5.700;2022-10-31T12:45:53;17.60;99.90
58582;DHT22;44361;51.476;5.700;2022-10-31T12:59:14;17.30;99.90
58582;DHT22;44361;51.476;5.700;2022-10-31T13:02:00;17.10;99.90
58582;DHT22;44361;51.476;5.700;2022-10-31T13:04:46;17.00;99.90
58582;DHT22;44361;51.476;5.700;2022-10-31T13:07:24;16.80;99.90
58582;DHT22;44361;51.476;5.700;2022-10-31T13:10:17;16.80;99.90
58582;DHT22;44361;51.476;5.700;2022-10-31T13:12:41;16.70;99.90
58582;DHT22;44361;51.476;5.700;2022-10-31T13:17:48;16.70;99.90
58582;DHT22;44361;51.476;5.700;2022-10-31T13:20:31;16.80;99.90
58582;DHT22;44361;51.476;5.700;2022-10-31T13:23:21;16.80;99.90
58582;DHT22;44361;51.476;5.700;2022-10-31T13:25:53;16.80;99.90
58582;DHT22;44361;51.476;5.700;2022-10-31T13:28:40;16.80;99.90
58582;DHT22;44361;51.476;5.700;2022-10-31T13:31:09;16.80;99.90
58582;DHT22;44361;51.476;5.700;2022-10-31T13:33:52;16.80;99.90
58582;DHT22;44361;51.476;5.700;2022-10-31T13:36:31;16.90;99.90
58582;DHT22;44361;51.476;5.700;2022-10-31T13:39:06;16.90;99.90
58582;DHT22;44361;51.476;5.700;2022-10-31T13:41:48;16.90;99.90
58582;DHT22;44361;51.476;5.700;2022-10-31T13:44:27;16.90;99.90
58582;DHT22;44361;51.476;5.700;2022-10-31T13:46:55;17.00;99.90
58582;DHT22;44361;51.476;5.700;2022-10-31T13:54:39;16.90;99.90
58582;DHT22;44361;51.476;5.700;2022-10-31T13:57:31;16.90;99.90
58582;DHT22;44361;51.476;5.700;2022-10-31T14:02:51;16.90;99.90
58582;DHT22;44361;51.476;5.700;2022-10-31T14:05:24;17.00;99.90
58582;DHT22;44361;51.476;5.700;2022-10-31T14:07:54;17.00;99.90
58582;DHT22;44361;51.476;5.700;2022-10-31T14:10:28;17.00;99.90
58582;DHT22;44361;51.476;5.700;2022-10-31T14:13:05;17.00;99.90
58582;DHT22;44361;51.476;5.700;2022-10-31T14:15:31;17.10;99.90
58582;DHT22;44361;51.476;5.700;2022-10-31T14:18:02;17.10;99.90
58582;DHT22;44361;51.476;5.700;2022-10-31T14:20:55;17.10;99.90
58582;DHT22;44361;51.476;5.700;2022-10-31T14:23:38;17.10;99.90
58582;DHT22;44361;51.476;5.700;2022-10-31T14:28:44;17.30;99.90
58582;DHT22;44361;51.476;5.700;2022-10-31T14:33:54;17.30;99.90
58582;DHT22;44361;51.476;5.700;2022-10-31T14:36:39;17.30;99.90
58582;DHT22;44361;51.476;5.700;2022-10-31T14:39:20;17.30;99.90
58582;DHT22;44361;51.476;5.700;2022-10-31T14:45:42;17.30;99.90
58582;DHT22;44361;51.476;5.700;2022-10-31T14:50:57;17.10;99.90
58582;DHT22;44361;51.476;5.700;2022-10-31T14:53:27;17.00;99.90
58582;DHT22;44361;51.476;5.700;2022-10-31T14:55:56;16.90;99.90
58582;DHT22;44361;51.476;5.700;2022-10-31T14:58:33;16.80;99.90
58582;DHT22;44361;51.476;5.700;2022-10-31T15:01:00;16.80;99.90
58582;DHT22;44361;51.476;5.700;2022-10-31T15:03:38;16.80;99.90
58582;DHT22;44361;51.476;5.700;2022-10-31T15:06:14;16.70;99.90
58582;DHT22;44361;51.476;5.700;2022-10-31T15:08:44;16.80;99.90
58582;DHT22;44361;51.476;5.700;2022-10-31T15:11:15;16.90;99.90
58582;DHT22;44361;51.476;5.700;2022-10-31T15:13:43;16.90;99.90
58582;DHT22;44361;51.476;5.700;2022-10-31T15:16:11;16.80;99.90
58582;DHT22;44361;51.476;5.700;2022-10-31T15:18:51;16.80;99.90
58582;DHT22;44361;51.476;5.700;2022-10-31T15:21:17;16.70;99.90
58582;DHT22;44361;51.476;5.700;2022-10-31T15:23:43;16.80;99.90
58582;DHT22;44361;51.476;5.700;2022-10-31T15:26:20;16.70;99.90
58582;DHT22;44361;51.476;5.700;2022-10-31T15:29:00;16.70;99.90
58582;DHT22;44361;51.476;5.700;2022-10-31T15:31:27;16.70;99.90
58582;DHT22;44361;51.476;5.700;2022-10-31T15:33:54;16.50;99.90
58582;DHT22;44361;51.476;5.700;2022-10-31T15:36:22;16.50;99.90
58582;DHT22;44361;51.476;5.700;2022-10-31T15:38:49;16.50;99.90
58582;DHT22;44361;51.476;5.700;2022-10-31T15:44:33;16.40;99.90
58582;DHT22;44361;51.476;5.700;2022-10-31T15:47:05;16.30;99.90
58582;DHT22;44361;51.476;5.700;2022-10-31T15:49:40;16.30;99.90
58582;DHT22;44361;51.476;5.700;2022-10-31T15:52:17;16.20;99.90
58582;DHT22;44361;51.476;5.700;2022-10-31T15:54:47;16.20;99.90
58582;DHT22;44361;51.476;5.700;2022-10-31T15:57:13;16.00;99.90
58582;DHT22;44361;51.476;5.700;2022-10-31T15:59:44;16.00;99.90
58582;DHT22;44361;51.476;5.700;2022-10-31T16:02:11;15.90;99.90
58582;DHT22;44361;51.476;5.700;2022-10-31T16:04:37;15.80;99.90
58582;DHT22;44361;51.476;5.700;2022-10-31T16:07:13;15.80;99.90
58582;DHT22;44361;51.476;5.700;2022-10-31T16:09:49;15.70;99.90
58582;DHT22;44361;51.476;5.700;2022-10-31T16:12:15;15.70;99.90
58582;DHT22;44361;51.476;5.700;2022-10-31T16:14:42;15.60;99.90
58582;DHT22;44361;51.476;5.700;2022-10-31T16:17:13;15.60;99.90
58582;DHT22;44361;51.476;5.700;2022-10-31T16:19:48;15.60;99.90
58582;DHT22;44361;51.476;5.700;2022-10-31T16:22:23;15.50;99.90
58582;DHT22;44361;51.476;5.700;2022-10-31T16:24:57;15.50;99.90
58582;DHT22;44361;51.476;5.700;2022-10-31T16:27:26;15.50;99.90
58582;DHT22;44361;51.476;5.700;2022-10-31T16:29:55;15.40;99.90
58582;DHT22;44361;51.476;5.700;2022-10-31T16:35:45;15.40;99.90
58582;DHT22;44361;51.476;5.700;2022-10-31T16:37:46;15.30;99.90
58582;DHT22;44361;51.476;5.700;2022-10-31T16:40:12;15.40;99.90
58582;DHT22;44361;51.476;5.700;2022-10-31T16:42:39;15.50;99.90
58582;DHT22;44361;51.476;5.700;2022-10-31T16:45:06;15.50;99.90
58582;DHT22;44361;51.476;5.700;2022-10-31T16:47:32;15.50;99.90
58582;DHT22;44361;51.476;5.700;2022-10-31T16:49:57;15.40;99.90
58582;DHT22;44361;51.476;5.700;2022-10-31T16:52:25;15.50;99.90
58582;DHT22;44361;51.476;5.700;2022-10-31T16:54:51;15.40;99.90
58582;DHT22;44361;51.476;5.700;2022-10-31T16:57:20;15.50;99.90
58582;DHT22;44361;51.476;5.700;2022-10-31T16:59:51;15.60;99.90
58582;DHT22;44361;51.476;5.700;2022-10-31T17:02:19;15.60;99.90
58582;DHT22;44361;51.476;5.700;2022-10-31T17:04:44;15.60;99.90
58582;DHT22;44361;51.476;5.700;2022-10-31T17:07:10;15.70;99.90
58582;DHT22;44361;51.476;5.700;2022-10-31T17:09:36;15.70;99.90
58582;DHT22;44361;51.476;5.700;2022-10-31T17:12:01;15.70;99.90
58582;DHT22;44361;51.476;5.700;2022-10-31T17:14:27;15.70;99.90
58582;DHT22;44361;51.476;5.700;2022-10-31T17:16:53;15.80;99.90
58582;DHT22;44361;51.476;5.700;2022-10-31T17:19:18;15.70;99.90
58582;DHT22;44361;51.476;5.700;2022-10-31T17:21:44;15.60;99.90
58582;DHT22;44361;51.476;5.700;2022-10-31T17:24:14;15.70;99.90
58582;DHT22;44361;51.476;5.700;2022-10-31T17:26:40;15.60;99.90
58582;DHT22;44361;51.476;5.700;2022-10-31T17:29:05;15.60;99.90
58582;DHT22;44361;51.476;5.700;2022-10-31T17:31:33;15.60;99.90
58582;DHT22;44361;51.476;5.700;2022-10-31T17:34:01;15.50;99.90
58582;DHT22;44361;51.476;5.700;2022-10-31T17:36:27;15.50;99.90
58582;DHT22;44361;51.476;5.700;2022-10-31T17:38:53;15.40;99.90
58582;DHT22;44361;51.476;5.700;2022-10-31T17:41:18;15.40;99.90
58582;DHT22;44361;51.476;5.700;2022-10-31T17:43:44;15.20;99.90
58582;DHT22;44361;51.476;5.700;2022-10-31T17:46:09;15.20;99.90
58582;DHT22;44361;51.476;5.700;2022-10-31T17:48:36;15.10;99.90
58582;DHT22;44361;51.476;5.700;2022-10-31T17:51:03;14.90;99.90